Time;durP1;ratioP1;P1;durP2;ratioP2;P2;SDS_P1;SDS_P2;PMS_P1;PMS_P2;Temp;Humidity;BMP_temperature;BMP_pressure;BME280_temperature;BME280_humidity;BME280_pressure;Samples;Min_cycle;Max_cycle;Signal;HPM_P1;HPM_P2
2022/04/07 00:00:56;;;;;;;8.38;7.55;;;9.10;99.90;;;;;;5033580;28;20210;-60
2022/04/07 00:03:23;;;;;;;8.10;7.32;;;9.20;99.90;;;;;;5033644;28;20214;-60
2022/04/07 00:05:51;;;;;;;8.35;7.55;;;9.20;99.90;;;;;;5033707;28;20199;-60
2022/04/07 00:08:18;;;;;;;9.52;6.88;;;9.10;99.90;;;;;;5033490;28;20225;-60
2022/04/07 00:10:48;;;;;;;7.82;7.05;;;9.10;99.90;;;;;;5033093;28;20203;-60
2022/04/07 00:13:15;;;;;;;8.80;6.90;;;9.10;99.90;;;;;;5033624;28;20263;-61
2022/04/07 00:15:42;;;;;;;7.57;6.95;;;9.10;99.90;;;;;;5033733;28;20648;-60
2022/04/07 00:18:10;;;;;;;7.38;6.57;;;9.10;99.90;;;;;;5033585;28;20574;-60
2022/04/07 00:20:37;;;;;;;8.00;7.20;;;9.10;99.90;;;;;;5032953;28;20204;-61
2022/04/07 00:23:04;;;;;;;10.32;7.20;;;9.10;99.90;;;;;;5033026;28;20207;-60
2022/04/07 00:25:32;;;;;;;7.65;6.95;;;9.10;99.90;;;;;;5035539;28;20300;-60
2022/04/07 00:28:00;;;;;;;6.90;6.30;;;9.00;99.90;;;;;;5037370;28;20240;-60
2022/04/07 00:30:27;;;;;;;6.97;6.35;;;9.00;99.90;;;;;;5037010;28;20205;-61
2022/04/07 00:32:54;;;;;;;9.40;7.50;;;9.00;99.90;;;;;;5037260;28;20204;-61
2022/04/07 00:35:24;;;;;;;7.20;6.50;;;9.10;99.90;;;;;;5036708;28;20221;-60
2022/04/07 00:37:52;;;;;;;6.30;5.70;;;9.10;99.90;;;;;;5036577;28;20380;-60
2022/04/07 00:40:19;;;;;;;7.43;6.05;;;9.10;99.90;;;;;;5037059;28;20205;-60
2022/04/07 00:42:47;;;;;;;6.90;5.75;;;9.10;99.90;;;;;;5037019;28;20228;-61
2022/04/07 00:45:16;;;;;;;6.70;6.00;;;9.10;99.90;;;;;;5036554;28;20197;-60
2022/04/07 00:47:43;;;;;;;6.55;5.60;;;9.10;99.90;;;;;;5036813;28;20239;-60
2022/04/07 00:50:11;;;;;;;7.40;6.15;;;9.10;99.90;;;;;;5036480;28;20610;-61
2022/04/07 00:52:42;;;;;;;6.80;5.32;;;9.20;99.90;;;;;;5036758;28;20198;-60
2022/04/07 00:55:11;;;;;;;6.07;5.18;;;9.20;99.90;;;;;;5036772;28;20228;-60
2022/04/07 00:57:40;;;;;;;6.72;5.72;;;9.30;99.90;;;;;;5036810;28;20237;-60
2022/04/07 01:00:09;;;;;;;6.78;5.95;;;9.30;99.90;;;;;;5036795;28;20233;-61
2022/04/07 01:02:38;;;;;;;5.28;4.88;;;9.40;99.90;;;;;;5036617;28;20202;-60
2022/04/07 01:05:05;;;;;;;6.85;5.10;;;9.40;99.90;;;;;;5036456;28;20671;-59
2022/04/07 01:07:37;;;;;;;5.40;4.90;;;9.50;99.90;;;;;;5036381;28;20229;-60
2022/04/07 01:10:04;;;;;;;5.72;5.20;;;9.50;99.90;;;;;;5036503;28;20664;-60
2022/04/07 01:12:31;;;;;;;5.47;5.00;;;9.60;99.90;;;;;;5036349;28;20206;-60
2022/04/07 01:15:01;;;;;;;5.80;5.20;;;9.60;99.90;;;;;;5036574;28;20225;-61
2022/04/07 01:17:30;;;;;;;6.30;5.20;;;9.70;99.90;;;;;;5036216;28;20232;-60
2022/04/07 01:19:58;;;;;;;7.07;5.10;;;9.70;99.90;;;;;;5036525;28;20204;-60
2022/04/07 01:22:26;;;;;;;7.22;5.70;;;9.60;99.90;;;;;;5036303;28;20230;-60
2022/04/07 01:24:54;;;;;;;5.65;5.00;;;9.50;99.90;;;;;;5036250;28;20204;-61
2022/04/07 01:27:24;;;;;;;5.28;4.78;;;9.40;99.90;;;;;;5036170;28;20234;-60
2022/04/07 01:29:52;;;;;;;5.50;5.00;;;9.40;99.90;;;;;;5036030;28;20205;-61
2022/04/07 01:32:24;;;;;;;8.70;5.20;;;9.40;99.90;;;;;;5036042;28;20283;-59
2022/04/07 01:34:51;;;;;;;5.90;4.60;;;9.40;99.90;;;;;;5035588;28;20203;-60
2022/04/07 01:37:20;;;;;;;4.93;4.25;;;9.40;99.90;;;;;;5034675;28;20239;-60
2022/04/07 01:39:48;;;;;;;6.00;4.35;;;9.50;99.90;;;;;;5036134;28;20204;-60
2022/04/07 01:42:17;;;;;;;4.63;4.22;;;9.50;99.90;;;;;;5036040;28;20203;-60
2022/04/07 01:44:49;;;;;;;7.72;3.55;;;9.50;99.90;;;;;;5035829;28;20208;-61
2022/04/07 01:47:21;;;;;;;3.83;3.53;;;9.50;99.90;;;;;;5035596;28;20227;-61
2022/04/07 01:49:53;;;;;;;4.45;3.58;;;9.50;99.90;;;;;;5035617;28;20197;-60
2022/04/07 01:52:20;;;;;;;4.55;3.88;;;9.50;99.90;;;;;;5035766;28;20224;-60
2022/04/07 01:54:48;;;;;;;3.60;3.25;;;9.50;99.90;;;;;;5035445;28;20231;-61
2022/04/07 01:57:22;;;;;;;3.92;3.63;;;9.50;99.90;;;;;;5035511;28;20232;-60
2022/04/07 01:59:50;;;;;;;4.15;3.50;;;9.50;99.90;;;;;;5035659;28;20191;-61
2022/04/07 02:02:17;;;;;;;3.40;3.10;;;9.40;99.90;;;;;;5035281;28;20202;-60
2022/04/07 02:04:57;;;;;;;4.03;3.30;;;9.50;99.90;;;;;;5035436;28;20206;-61
2022/04/07 02:07:29;;;;;;;3.90;3.25;;;9.50;99.90;;;;;;5034983;28;20232;-61
2022/04/07 02:09:56;;;;;;;3.97;3.55;;;9.50;99.90;;;;;;5035032;28;20184;-60
2022/04/07 02:12:27;;;;;;;4.28;3.08;;;9.40;99.90;;;;;;5034935;28;20698;-61
2022/04/07 02:14:54;;;;;;;4.43;4.03;;;9.30;99.90;;;;;;5035135;28;20213;-60
2022/04/07 02:17:22;;;;;;;4.03;3.63;;;9.20;99.90;;;;;;5035086;28;20244;-60
2022/04/07 02:19:50;;;;;;;4.43;4.03;;;9.20;99.90;;;;;;5035172;28;20233;-60
2022/04/07 02:22:17;;;;;;;4.07;3.55;;;9.10;99.90;;;;;;5035085;28;20233;-59
2022/04/07 02:24:44;;;;;;;4.60;3.70;;;9.10;99.90;;;;;;5035131;28;20200;-60
2022/04/07 02:27:11;;;;;;;4.93;4.00;;;9.00;99.90;;;;;;5034933;28;20229;-61
2022/04/07 02:29:42;;;;;;;4.90;3.97;;;9.10;99.90;;;;;;5034973;28;20209;-60
2022/04/07 02:32:11;;;;;;;6.13;3.80;;;9.00;99.90;;;;;;5034682;28;20185;-60
2022/04/07 02:34:38;;;;;;;4.80;4.10;;;9.00;99.90;;;;;;5034762;28;20224;-60
2022/04/07 02:37:06;;;;;;;4.50;4.10;;;9.00;99.90;;;;;;5034451;28;20237;-61
2022/04/07 02:39:33;;;;;;;3.88;3.47;;;8.90;99.90;;;;;;5034805;28;20632;-60
2022/04/07 02:42:00;;;;;;;3.80;3.30;;;8.80;99.90;;;;;;5034824;28;20207;-60
2022/04/07 02:44:27;;;;;;;5.95;3.80;;;8.80;99.90;;;;;;5034788;28;20215;-60
2022/04/07 02:46:55;;;;;;;3.67;3.35;;;8.70;99.90;;;;;;5034281;28;20229;-61
2022/04/07 02:49:24;;;;;;;5.25;4.10;;;8.70;99.90;;;;;;5033747;28;20208;-60
2022/04/07 02:51:51;;;;;;;3.30;3.00;;;8.70;99.90;;;;;;5034763;28;20253;-60
2022/04/07 02:54:18;;;;;;;3.55;3.20;;;8.70;99.90;;;;;;5034834;28;20352;-59
2022/04/07 02:56:46;;;;;;;3.67;2.60;;;8.80;99.90;;;;;;5034044;28;20209;-61
2022/04/07 02:59:13;;;;;;;3.92;2.53;;;8.80;99.90;;;;;;5034192;28;20215;-61
2022/04/07 03:01:40;;;;;;;3.03;2.50;;;8.90;99.90;;;;;;5034334;28;20582;-60
2022/04/07 03:04:08;;;;;;;3.83;2.45;;;8.90;99.90;;;;;;5033945;28;20206;-61
2022/04/07 03:06:35;;;;;;;3.15;2.30;;;9.00;99.90;;;;;;5034172;28;20568;-60
2022/04/07 03:09:03;;;;;;;3.03;2.00;;;9.00;99.90;;;;;;5033776;28;20209;-60
2022/04/07 03:11:30;;;;;;;2.28;1.88;;;9.10;99.90;;;;;;5034044;28;20204;-60
2022/04/07 03:13:57;;;;;;;3.13;2.38;;;9.10;99.90;;;;;;5034059;28;20201;-61
2022/04/07 03:16:24;;;;;;;5.88;2.22;;;9.00;99.90;;;;;;5033567;28;20731;-61
2022/04/07 03:18:51;;;;;;;3.33;2.50;;;9.00;99.90;;;;;;5033664;28;20234;-60
2022/04/07 03:21:19;;;;;;;3.42;2.25;;;9.00;99.90;;;;;;5033995;28;20209;-60
2022/04/07 03:23:46;;;;;;;1.75;1.50;;;9.00;99.90;;;;;;5033692;28;20205;-60
2022/04/07 03:26:13;;;;;;;4.25;2.13;;;9.00;99.90;;;;;;5033817;28;20201;-60
2022/04/07 03:28:40;;;;;;;2.63;1.70;;;9.00;99.90;;;;;;5033964;28;20223;-60
2022/04/07 03:31:07;;;;;;;2.10;1.90;;;9.10;99.90;;;;;;5033654;28;20218;-61
2022/04/07 03:33:34;;;;;;;4.13;2.08;;;9.10;99.90;;;;;;5033520;28;20205;-60
2022/04/07 03:36:01;;;;;;;3.22;2.17;;;9.20;99.90;;;;;;5033745;28;20229;-59
2022/04/07 03:38:30;;;;;;;2.47;2.05;;;9.20;99.90;;;;;;5036729;22;20234;-54
2022/04/07 03:40:57;;;;;;;4.38;1.88;;;9.20;99.90;;;;;;5013784;28;20240;-55
2022/04/07 03:43:24;;;;;;;3.38;1.75;;;9.30;99.90;;;;;;5013735;28;20206;-54
2022/04/07 03:45:51;;;;;;;4.00;2.13;;;9.30;99.90;;;;;;5013580;28;20208;-55
2022/04/07 03:48:18;;;;;;;5.10;2.13;;;9.30;99.90;;;;;;5013510;28;20226;-54
2022/04/07 03:50:45;;;;;;;3.40;1.70;;;9.40;99.90;;;;;;5013884;28;20212;-54
2022/04/07 03:53:12;;;;;;;3.55;2.50;;;9.40;99.90;;;;;;5014430;28;20672;-54
2022/04/07 03:55:41;;;;;;;3.05;1.50;;;9.40;99.90;;;;;;5014054;28;20236;-53
2022/04/07 03:58:08;;;;;;;2.70;1.88;;;9.50;99.90;;;;;;5014392;28;20232;-54
2022/04/07 04:00:35;;;;;;;3.30;1.80;;;9.40;99.90;;;;;;5014211;28;20213;-53
2022/04/07 04:03:02;;;;;;;4.55;2.00;;;9.50;99.90;;;;;;5014438;28;20551;-53
2022/04/07 04:05:29;;;;;;;4.05;2.53;;;9.50;99.90;;;;;;5013413;28;20665;-54
2022/04/07 04:09:35;;;;;;;3.00;2.20;;;9.60;99.90;;;;;;5132790;27;20646;-54
2022/04/07 04:12:02;;;;;;;3.65;2.78;;;9.60;99.90;;;;;;5131664;27;20205;-54
2022/04/07 04:14:30;;;;;;;3.72;2.05;;;9.60;99.90;;;;;;5131859;27;20294;-55
2022/04/07 04:16:57;;;;;;;3.58;2.00;;;9.60;99.90;;;;;;5131586;27;20200;-55
2022/04/07 04:19:25;;;;;;;4.45;2.05;;;9.60;99.90;;;;;;5132140;27;20194;-55
2022/04/07 04:21:52;;;;;;;3.15;2.33;;;9.60;99.90;;;;;;5131614;27;20647;-54
2022/04/07 04:24:19;;;;;;;2.15;1.70;;;9.60;99.90;;;;;;5131598;27;20284;-53
2022/04/07 04:26:47;;;;;;;2.70;1.70;;;9.60;99.90;;;;;;5131082;27;20741;-54
2022/04/07 04:29:14;;;;;;;3.95;2.10;;;9.60;99.90;;;;;;5131174;27;20220;-55
2022/04/07 04:31:59;;;;;;;3.65;1.90;;;9.60;99.90;;;;;;5131681;27;20192;-55
2022/04/07 04:34:27;;;;;;;3.85;2.30;;;9.70;99.90;;;;;;5131300;27;20579;-53
2022/04/07 04:36:54;;;;;;;2.90;2.13;;;9.70;99.90;;;;;;5130743;27;20683;-54
2022/04/07 04:39:21;;;;;;;4.80;2.45;;;9.70;99.90;;;;;;5130947;27;20231;-56
2022/04/07 04:41:49;;;;;;;5.32;3.33;;;9.70;99.90;;;;;;5130802;27;20208;-55
2022/04/07 04:44:16;;;;;;;2.53;1.95;;;9.70;99.90;;;;;;5131362;27;20206;-56
2022/04/07 04:46:43;;;;;;;3.95;2.17;;;9.70;99.90;;;;;;5131611;27;20204;-55
2022/04/07 04:49:10;;;;;;;4.93;2.15;;;9.70;99.90;;;;;;5130744;27;20708;-55
2022/04/07 04:51:37;;;;;;;4.70;2.22;;;9.80;99.90;;;;;;5131135;27;20229;-55
2022/04/07 04:54:05;;;;;;;2.40;1.85;;;9.80;99.90;;;;;;5131582;27;20673;-54
2022/04/07 04:56:32;;;;;;;3.83;1.70;;;9.80;99.90;;;;;;5131816;27;20209;-55
2022/04/07 04:59:00;;;;;;;5.22;2.20;;;9.90;99.90;;;;;;5131331;27;20605;-54
2022/04/07 05:01:28;;;;;;;2.70;1.80;;;9.90;99.90;;;;;;5131391;27;20201;-54
2022/04/07 05:03:55;;;;;;;1.70;1.60;;;9.90;99.90;;;;;;5132613;27;20539;-54
2022/04/07 05:06:22;;;;;;;2.50;1.73;;;9.90;99.90;;;;;;5132178;27;20571;-54
2022/04/07 05:08:49;;;;;;;3.90;2.70;;;9.90;99.90;;;;;;5131372;27;20480;-54
2022/04/07 05:11:16;;;;;;;3.07;1.97;;;9.90;99.90;;;;;;5131442;27;20446;-54
2022/04/07 05:13:44;;;;;;;2.72;1.55;;;9.90;99.90;;;;;;5131257;27;21054;-53
2022/04/07 05:16:15;;;;;;;1.67;1.58;;;10.00;99.90;;;;;;5131273;27;20224;-54
2022/04/07 05:18:46;;;;;;;4.20;1.40;;;10.00;99.90;;;;;;5129943;27;20312;-53
2022/04/07 05:21:14;;;;;;;1.75;1.60;;;10.00;99.90;;;;;;5116377;28;20735;-54
2022/04/07 05:23:42;;;;;;;1.75;1.60;;;10.00;99.90;;;;;;5116570;28;20204;-53
2022/04/07 05:26:09;;;;;;;4.53;1.95;;;10.00;99.90;;;;;;5116547;28;20730;-54
2022/04/07 05:28:36;;;;;;;2.70;1.50;;;10.00;99.90;;;;;;5116629;28;20313;-54
2022/04/07 05:31:03;;;;;;;2.70;2.10;;;10.10;99.90;;;;;;5116753;28;20258;-53
2022/04/07 05:33:32;;;;;;;4.25;1.80;;;10.10;99.90;;;;;;5116704;28;20470;-53
2022/04/07 05:35:59;;;;;;;2.10;1.88;;;10.10;99.90;;;;;;5116257;28;20231;-54
2022/04/07 05:38:27;;;;;;;3.80;1.90;;;10.10;99.90;;;;;;5116375;28;20217;-54
2022/04/07 05:40:54;;;;;;;3.53;1.88;;;10.20;99.90;;;;;;5116437;28;20236;-53
2022/04/07 05:43:21;;;;;;;5.60;2.67;;;10.20;99.90;;;;;;5116421;28;20205;-53
2022/04/07 05:45:50;;;;;;;4.05;1.90;;;10.30;99.90;;;;;;5116387;28;20489;-54
2022/04/07 05:48:17;;;;;;;3.80;1.93;;;10.30;99.90;;;;;;5116377;28;20221;-54
2022/04/07 05:50:46;;;;;;;3.47;2.10;;;10.30;99.90;;;;;;5115937;28;20447;-54
2022/04/07 05:53:13;;;;;;;4.17;1.90;;;10.40;99.90;;;;;;5116134;28;20447;-54
2022/04/07 05:55:40;;;;;;;2.30;1.37;;;10.40;99.90;;;;;;5116200;28;20500;-54
2022/04/07 05:58:09;;;;;;;2.97;2.00;;;10.50;99.60;;;;;;5115610;28;20462;-55
2022/04/07 06:00:37;;;;;;;3.10;1.70;;;10.60;99.00;;;;;;5115666;28;20295;-55
2022/04/07 06:03:04;;;;;;;5.30;1.70;;;10.60;98.80;;;;;;5116083;28;20488;-54
2022/04/07 06:05:31;;;;;;;2.10;1.47;;;10.70;98.50;;;;;;5115551;28;20447;-54
2022/04/07 06:08:01;;;;;;;3.53;1.73;;;10.70;98.00;;;;;;5115371;28;20840;-55
2022/04/07 06:10:28;;;;;;;3.30;2.00;;;10.80;97.90;;;;;;5115770;28;20448;-54
2022/04/07 06:12:55;;;;;;;2.20;1.37;;;10.80;97.60;;;;;;5115614;28;20447;-55
2022/04/07 06:15:23;;;;;;;3.23;1.40;;;10.90;97.30;;;;;;5115731;28;20446;-54
2022/04/07 06:17:51;;;;;;;2.30;1.40;;;10.90;97.00;;;;;;5115255;28;20475;-55
2022/04/07 06:20:18;;;;;;;1.90;1.40;;;11.00;96.60;;;;;;5115538;28;20443;-55
2022/04/07 06:22:46;;;;;;;3.60;1.47;;;11.10;96.00;;;;;;5115512;28;20453;-56
2022/04/07 06:25:15;;;;;;;2.33;1.43;;;11.10;95.30;;;;;;5115371;28;20455;-55
2022/04/07 06:27:44;;;;;;;3.90;1.57;;;11.10;94.90;;;;;;5115036;28;20474;-54
2022/04/07 06:30:13;;;;;;;2.50;1.33;;;11.10;94.50;;;;;;5115577;28;20475;-54
2022/04/07 06:32:42;;;;;;;4.40;1.50;;;11.10;94.30;;;;;;5113132;28;20462;-55
2022/04/07 06:35:10;;;;;;;3.67;1.77;;;11.10;94.20;;;;;;5114404;28;20531;-54
2022/04/07 06:37:51;;;;;;;3.10;1.50;;;11.10;94.20;;;;;;5113249;28;20459;-55
2022/04/07 06:40:21;;;;;;;2.90;1.20;;;11.20;94.20;;;;;;5115024;28;20437;-54
2022/04/07 06:42:49;;;;;;;4.47;1.57;;;11.40;93.80;;;;;;5114762;28;20438;-52
2022/04/07 06:45:16;;;;;;;2.93;1.60;;;11.60;93.20;;;;;;5114740;28;20537;-56
2022/04/07 06:47:44;;;;;;;4.47;1.30;;;11.80;92.60;;;;;;5113923;28;20463;-56
2022/04/07 06:50:13;;;;;;;4.93;1.20;;;11.90;92.10;;;;;;5114512;28;20520;-55
2022/04/07 06:52:40;;;;;;;2.30;1.30;;;11.90;91.60;;;;;;5114206;28;20456;-55
2022/04/07 06:55:09;;;;;;;2.80;1.40;;;11.90;91.30;;;;;;5114530;28;20457;-56
2022/04/07 06:57:50;;;;;;;4.73;1.50;;;11.80;91.40;;;;;;5113133;28;20995;-55
2022/04/07 07:00:18;;;;;;;2.77;1.30;;;11.80;91.20;;;;;;5113492;28;20441;-54
2022/04/07 07:02:47;;;;;;;1.70;1.23;;;11.80;91.30;;;;;;5114243;28;20596;-55
2022/04/07 07:05:14;;;;;;;2.27;1.40;;;11.70;91.30;;;;;;5114061;28;20452;-55
2022/04/07 07:07:42;;;;;;;1.77;1.07;;;11.70;91.30;;;;;;5113437;28;20488;-55
2022/04/07 07:10:09;;;;;;;2.70;1.40;;;11.70;91.20;;;;;;5113726;28;20479;-54
2022/04/07 07:12:37;;;;;;;2.10;1.20;;;11.60;91.30;;;;;;5114286;28;20442;-54
2022/04/07 07:15:05;;;;;;;2.03;1.13;;;11.70;91.40;;;;;;5114412;28;20482;-55
2022/04/07 07:17:38;;;;;;;2.50;1.40;;;11.70;91.30;;;;;;5112705;28;20470;-55
2022/04/07 07:20:06;;;;;;;4.50;1.37;;;11.70;91.30;;;;;;5113819;28;20436;-55
2022/04/07 07:22:33;;;;;;;2.67;1.60;;;11.70;91.40;;;;;;5113269;28;20445;-55
2022/04/07 07:25:00;;;;;;;4.63;1.13;;;11.80;91.50;;;;;;5114234;28;20810;-54
2022/04/07 07:27:28;;;;;;;1.33;1.07;;;11.80;91.60;;;;;;5113399;28;20461;-54
2022/04/07 07:29:55;;;;;;;3.13;1.70;;;11.90;91.60;;;;;;5113385;28;21055;-54
2022/04/07 07:32:23;;;;;;;1.90;1.00;;;11.90;91.00;;;;;;5113932;28;20449;-55
2022/04/07 07:34:50;;;;;;;2.83;1.00;;;12.00;90.90;;;;;;5113925;28;20460;-54
2022/04/07 07:37:19;;;;;;;2.50;1.00;;;12.10;91.00;;;;;;5112632;28;21030;-54
2022/04/07 07:39:46;;;;;;;1.87;1.10;;;12.30;90.90;;;;;;5113783;28;20443;-55
2022/04/07 07:42:13;;;;;;;2.43;1.13;;;12.40;90.70;;;;;;5112995;28;20455;-55
2022/04/07 07:44:40;;;;;;;3.73;1.40;;;12.40;90.50;;;;;;5112619;28;20457;-55
2022/04/07 07:47:07;;;;;;;1.40;0.80;;;12.50;90.60;;;;;;5113177;28;20460;-54
2022/04/07 07:49:36;;;;;;;1.63;0.93;;;12.60;90.30;;;;;;5112997;28;20480;-54
2022/04/07 07:52:04;;;;;;;3.03;1.20;;;12.50;90.10;;;;;;5113247;28;20481;-54
2022/04/07 07:54:31;;;;;;;1.20;1.10;;;12.50;90.40;;;;;;5112402;28;20444;-54
2022/04/07 07:56:58;;;;;;;2.03;1.30;;;12.50;90.70;;;;;;5113256;28;20472;-54
2022/04/07 07:59:25;;;;;;;1.03;0.90;;;12.40;91.00;;;;;;5113570;28;20811;-53
2022/04/07 08:01:52;;;;;;;1.10;0.93;;;12.30;91.30;;;;;;5112304;28;20446;-55
2022/04/07 08:04:19;;;;;;;1.93;1.50;;;12.30;91.80;;;;;;5112701;28;20449;-54
2022/04/07 08:06:47;;;;;;;2.33;1.03;;;12.30;92.40;;;;;;5113510;28;20445;-54
2022/04/07 08:09:15;;;;;;;1.10;1.00;;;12.20;93.00;;;;;;5113445;28;20896;-53
2022/04/07 08:11:42;;;;;;;0.80;0.77;;;12.20;93.70;;;;;;5112736;28;20512;-54
2022/04/07 08:14:09;;;;;;;1.23;1.03;;;12.00;94.70;;;;;;5113617;28;20447;-54
2022/04/07 08:16:36;;;;;;;2.17;1.00;;;11.80;95.40;;;;;;5112685;28;20460;-54
2022/04/07 08:19:04;;;;;;;1.80;0.90;;;11.70;96.70;;;;;;5113240;28;20463;-54
2022/04/07 08:21:31;;;;;;;3.23;1.27;;;11.40;97.80;;;;;;5113219;28;20815;-54
2022/04/07 08:24:00;;;;;;;1.23;0.93;;;11.20;98.90;;;;;;5112543;28;20446;-54
2022/04/07 08:26:27;;;;;;;1.00;0.87;;;11.00;99.90;;;;;;5113683;28;20445;-54
2022/04/07 08:28:54;;;;;;;1.77;1.10;;;10.80;99.90;;;;;;5113430;28;20831;-54
2022/04/07 08:31:23;;;;;;;1.50;1.10;;;10.60;99.90;;;;;;5112429;28;20451;-54
2022/04/07 08:33:50;;;;;;;1.30;1.00;;;10.50;99.90;;;;;;5112856;28;20953;-55
2022/04/07 08:36:17;;;;;;;1.17;1.00;;;10.50;99.90;;;;;;5113096;28;20545;-54
2022/04/07 08:38:44;;;;;;;0.97;0.90;;;10.40;99.90;;;;;;5111984;28;20500;-53
2022/04/07 08:41:12;;;;;;;2.17;1.17;;;10.40;99.90;;;;;;5113608;28;20856;-55
2022/04/07 08:43:42;;;;;;;1.20;1.10;;;10.40;99.90;;;;;;5113238;28;20451;-54
2022/04/07 08:46:11;;;;;;;1.33;0.93;;;10.40;99.90;;;;;;5113034;28;20442;-54
2022/04/07 08:48:40;;;;;;;1.27;1.10;;;10.30;99.90;;;;;;5112317;28;20282;-54
2022/04/07 08:51:08;;;;;;;1.88;1.00;;;10.30;99.90;;;;;;5112663;28;20462;-53
2022/04/07 08:53:36;;;;;;;1.60;1.20;;;10.30;99.90;;;;;;5113004;28;20274;-53
2022/04/07 08:56:04;;;;;;;1.70;1.30;;;10.20;99.90;;;;;;5114292;28;20205;-54
2022/04/07 08:58:33;;;;;;;1.40;1.08;;;10.20;99.90;;;;;;5116432;27;20472;-53
2022/04/07 09:01:00;;;;;;;2.03;1.25;;;10.10;99.90;;;;;;5116630;28;20207;-54
2022/04/07 09:03:27;;;;;;;1.55;1.30;;;10.10;99.90;;;;;;5116758;28;20214;-54
2022/04/07 09:05:56;;;;;;;2.25;1.20;;;10.00;99.90;;;;;;5114711;28;20443;-55
2022/04/07 09:08:31;;;;;;;1.73;1.30;;;9.90;99.90;;;;;;5115998;28;20699;-54
2022/04/07 09:10:59;;;;;;;2.35;1.23;;;9.90;99.90;;;;;;5116501;28;20207;-54
2022/04/07 09:13:30;;;;;;;2.72;1.15;;;9.90;99.90;;;;;;5115632;28;20200;-55
2022/04/07 09:16:00;;;;;;;2.17;1.58;;;9.80;99.90;;;;;;5116198;28;20190;-56
2022/04/07 09:18:27;;;;;;;1.50;1.13;;;9.80;99.90;;;;;;5116475;28;20268;-56
2022/04/07 09:20:54;;;;;;;2.30;1.50;;;9.90;99.90;;;;;;5115832;28;20442;-54
2022/04/07 09:23:21;;;;;;;2.60;1.80;;;9.90;99.90;;;;;;5116739;28;20207;-54
2022/04/07 09:25:50;;;;;;;1.30;1.17;;;10.10;99.90;;;;;;5115629;28;20204;-55
2022/04/07 09:28:35;;;;;;;4.15;2.72;;;10.10;99.90;;;;;;5116326;28;20220;-55
2022/04/07 09:31:03;;;;;;;1.38;1.00;;;10.00;99.90;;;;;;5116017;28;20206;-54
2022/04/07 09:33:31;;;;;;;3.33;1.42;;;10.00;99.90;;;;;;5110678;28;20221;-55
2022/04/07 09:36:03;;;;;;;2.45;1.10;;;10.00;99.90;;;;;;5115980;28;20672;-55
2022/04/07 09:38:32;;;;;;;1.83;1.23;;;10.00;99.90;;;;;;5116130;28;20346;-55
2022/04/07 09:41:07;;;;;;;1.42;1.17;;;10.00;99.90;;;;;;5116871;28;20495;-55
2022/04/07 09:43:46;;;;;;;2.58;1.20;;;9.90;99.90;;;;;;5116040;28;20197;-54
2022/04/07 09:46:16;;;;;;;4.35;2.80;;;9.90;99.90;;;;;;5115562;28;20204;-55
2022/04/07 09:49:00;;;;;;;5.63;3.50;;;9.90;99.90;;;;;;5116178;27;20228;-55
2022/04/07 09:51:28;;;;;;;5.05;3.70;;;9.80;99.90;;;;;;5116054;28;20189;-55
2022/04/07 09:53:57;;;;;;;4.53;3.10;;;9.80;99.90;;;;;;5115040;28;20363;-56
2022/04/07 09:56:28;;;;;;;4.18;1.70;;;9.90;99.90;;;;;;5115971;28;20673;-56
2022/04/07 09:58:56;;;;;;;2.17;1.52;;;10.00;99.90;;;;;;5115768;28;20253;-55
2022/04/07 10:01:25;;;;;;;1.40;1.20;;;10.10;99.90;;;;;;5114925;28;20206;-56
2022/04/07 10:03:52;;;;;;;2.10;1.90;;;10.10;99.90;;;;;;5115759;28;20515;-56
2022/04/07 10:06:20;;;;;;;2.87;1.80;;;10.20;99.90;;;;;;5115201;28;20202;-56
2022/04/07 10:08:51;;;;;;;1.57;1.40;;;10.30;99.90;;;;;;5114302;28;20522;-56
2022/04/07 10:11:18;;;;;;;2.20;1.00;;;10.40;99.90;;;;;;5114468;28;20968;-56
2022/04/07 10:13:46;;;;;;;1.93;1.33;;;10.40;99.90;;;;;;5115442;28;20510;-56
2022/04/07 10:16:15;;;;;;;1.63;1.23;;;10.50;99.90;;;;;;5115330;28;20447;-55
2022/04/07 10:18:48;;;;;;;2.00;1.33;;;10.60;99.90;;;;;;5114932;28;20475;-56
2022/04/07 10:21:31;;;;;;;1.53;0.90;;;10.60;99.90;;;;;;5114200;28;20917;-56
2022/04/07 10:24:14;;;;;;;1.57;1.47;;;10.70;99.90;;;;;;5114865;28;20439;-55
2022/04/07 10:26:44;;;;;;;1.60;1.20;;;10.70;99.90;;;;;;5114730;28;20804;-55
2022/04/07 10:29:21;;;;;;;1.63;1.53;;;11.00;99.90;;;;;;5113677;28;20466;-57
2022/04/07 10:32:22;;;;;;;1.43;1.10;;;11.10;99.90;;;;;;5114842;28;20435;-56
2022/04/07 10:35:00;;;;;;;0.80;0.70;;;11.00;99.90;;;;;;5114512;28;20451;-54
2022/04/07 10:37:43;;;;;;;3.70;1.00;;;10.90;99.90;;;;;;5112776;28;20843;-55
2022/04/07 10:40:50;;;;;;;1.80;1.10;;;10.40;99.90;;;;;;5114543;28;20414;-55
2022/04/07 10:43:22;;;;;;;2.42;1.20;;;9.10;99.90;;;;;;5091863;22;20431;-56
2022/04/07 10:45:51;;;;;;;2.08;1.20;;;7.90;99.90;;;;;;5078366;28;20217;-57
2022/04/07 10:48:28;;;;;;;2.15;1.23;;;7.20;99.90;;;;;;5073878;28;20211;-56
2022/04/07 10:50:59;;;;;;;1.98;1.00;;;6.70;99.90;;;;;;5074264;28;20582;-56
2022/04/07 10:53:31;;;;;;;2.97;0.80;;;6.30;99.90;;;;;;5073157;28;20227;-57
2022/04/07 10:56:05;;;;;;;1.17;0.90;;;6.00;99.90;;;;;;5074114;28;20216;-55
2022/04/07 10:58:49;;;;;;;1.10;1.00;;;5.80;99.90;;;;;;5073367;28;20628;-57
2022/04/07 11:01:37;;;;;;;2.42;0.90;;;5.70;99.90;;;;;;5074465;28;20181;-58
2022/04/07 11:04:33;;;;;;;1.48;1.20;;;5.60;99.90;;;;;;5074101;28;20229;-57
2022/04/07 11:07:18;;;;;;;1.73;1.00;;;5.50;99.90;;;;;;5085056;28;20231;-58
2022/04/07 11:09:48;;;;;;;1.70;1.00;;;5.40;99.90;;;;;;5093893;28;20209;-56
2022/04/07 11:12:19;;;;;;;1.10;1.00;;;5.40;99.90;;;;;;5094074;28;20206;-56
2022/04/07 11:14:47;;;;;;;2.55;1.08;;;5.50;99.90;;;;;;5081258;28;20238;-56
2022/04/07 11:17:22;;;;;;;1.00;0.90;;;5.60;99.90;;;;;;5072461;28;20225;-57
2022/04/07 11:19:59;;;;;;;1.75;0.98;;;5.70;99.90;;;;;;5073727;28;20189;-56
2022/04/07 11:22:49;;;;;;;3.70;1.92;;;5.90;99.90;;;;;;5073372;28;20665;-55
2022/04/07 11:25:20;;;;;;;2.65;1.08;;;6.10;99.90;;;;;;5073398;28;20230;-57
2022/04/07 11:28:07;;;;;;;2.13;1.30;;;6.30;99.90;;;;;;5092775;28;20196;-57
2022/04/07 11:30:46;;;;;;;1.85;1.17;;;6.40;99.90;;;;;;5093507;28;20313;-57
2022/04/07 11:33:28;;;;;;;1.77;1.30;;;6.40;99.90;;;;;;5093085;28;20189;-57
2022/04/07 11:36:14;;;;;;;7.13;4.60;;;6.60;99.90;;;;;;5091770;28;20276;-57
2022/04/07 11:38:46;;;;;;;2.83;2.40;;;6.80;99.90;;;;;;5093419;28;20190;-56
2022/04/07 11:41:15;;;;;;;2.00;1.63;;;7.00;99.90;;;;;;5093622;28;20203;-57
2022/04/07 11:43:44;;;;;;;5.25;2.90;;;7.20;99.90;;;;;;5093302;28;20634;-56
2022/04/07 11:46:12;;;;;;;2.78;2.10;;;7.50;99.90;;;;;;5093180;28;20216;-57
2022/04/07 11:48:40;;;;;;;2.47;2.28;;;7.70;99.90;;;;;;5093113;28;20266;-54
2022/04/07 11:51:12;;;;;;;1.85;1.48;;;8.00;99.90;;;;;;5093563;28;20227;-56
2022/04/07 11:53:40;;;;;;;2.35;2.17;;;8.30;99.90;;;;;;5093104;28;20623;-54
2022/04/07 11:56:17;;;;;;;1.30;1.20;;;8.40;99.90;;;;;;5093316;28;20254;-55
2022/04/07 11:58:45;;;;;;;3.60;3.30;;;8.50;99.90;;;;;;5093054;28;20214;-56
2022/04/07 12:01:13;;;;;;;1.77;1.55;;;8.60;99.90;;;;;;5093113;28;20708;-55
2022/04/07 12:03:41;;;;;;;2.17;1.60;;;8.60;99.90;;;;;;5093475;28;20223;-56
2022/04/07 12:06:09;;;;;;;1.08;1.00;;;8.80;99.90;;;;;;5093819;28;20201;-57
2022/04/07 12:08:36;;;;;;;2.85;1.40;;;9.00;99.90;;;;;;5093352;28;20667;-56
2022/04/07 12:11:05;;;;;;;1.40;1.30;;;9.10;99.90;;;;;;5094339;28;20563;-56
2022/04/07 12:13:35;;;;;;;1.10;1.00;;;9.10;99.90;;;;;;5093438;28;20217;-56
2022/04/07 12:16:02;;;;;;;1.10;1.00;;;9.00;99.90;;;;;;5093002;28;20203;-55
2022/04/07 12:18:30;;;;;;;2.75;1.77;;;9.10;99.90;;;;;;5093159;28;20204;-54
2022/04/07 12:21:02;;;;;;;1.35;1.25;;;9.20;99.90;;;;;;5093094;28;20207;-56
2022/04/07 12:23:29;;;;;;;2.42;2.08;;;9.40;99.90;;;;;;5093613;28;20228;-55
2022/04/07 12:26:01;;;;;;;2.30;1.08;;;9.60;99.90;;;;;;5092968;28;20699;-55
2022/04/07 12:28:40;;;;;;;1.60;1.10;;;9.80;99.90;;;;;;5093364;28;20213;-56
2022/04/07 12:31:12;;;;;;;4.73;1.33;;;10.00;99.90;;;;;;5096425;28;20207;-55
2022/04/07 12:33:40;;;;;;;1.80;1.00;;;10.30;99.90;;;;;;5097237;28;20498;-56
2022/04/07 12:36:08;;;;;;;2.50;1.10;;;10.40;99.90;;;;;;5097116;28;20451;-55
2022/04/07 12:38:36;;;;;;;2.50;1.60;;;10.60;99.90;;;;;;5096915;28;20445;-56
2022/04/07 12:41:18;;;;;;;2.80;1.40;;;10.60;99.90;;;;;;5097477;28;20452;-56
2022/04/07 12:43:51;;;;;;;2.40;1.40;;;10.70;99.90;;;;;;5096933;28;20529;-56
2022/04/07 12:46:19;;;;;;;3.70;1.77;;;10.80;99.90;;;;;;5096497;28;20512;-56
2022/04/07 12:49:06;;;;;;;1.90;1.30;;;10.90;99.90;;;;;;5097410;28;20462;-56
2022/04/07 12:51:35;;;;;;;1.30;1.20;;;11.20;99.90;;;;;;5096731;28;20482;-55
2022/04/07 12:54:10;;;;;;;3.80;1.23;;;11.30;99.90;;;;;;5103513;28;20475;-58
2022/04/07 12:56:37;;;;;;;3.00;1.00;;;11.30;99.90;;;;;;5101803;28;20822;-60
2022/04/07 12:59:08;;;;;;;1.97;1.40;;;11.20;98.70;;;;;;5101339;28;20446;-57
2022/04/07 13:01:36;;;;;;;1.20;1.10;;;11.10;98.70;;;;;;5101235;28;20803;-57
2022/04/07 13:04:04;;;;;;;1.60;1.20;;;11.10;98.90;;;;;;5101429;28;20471;-57
2022/04/07 13:06:32;;;;;;;1.40;1.13;;;11.20;99.00;;;;;;5101267;28;20907;-58